Skip to main content

NOAA/GLERL Met Station at Michigan City, IN

Previous 5 days (top of hour only)
See also Previous 3 Hours (2 minute increments)
Jump down to Data
Switch to [English][Metric]
Zoom: Click and drag, Pan: shift-click and drag, Unzoom: double-click, Unzoom All




Note: Speed = mean wind during 2-minute period at top of hour,
Gust = max wind during 2-minute period at top of hour,
Peak = max wind during entire hour.
• See also 5-day windrose plot


NOAA/GLERL Met Station at Michigan City, IN

Previous 5 days (top of hour only)
See also Previous 3 Hours (2 minute increments)
Jump up to Graphs
Switch to [English][Metric]
                  Wind  Wind  Wind   Air   Dew   Rel     Sta   PAR
                   Spd   Gst   Dir  Temp    Pt   Hum    Pres uE/m2/
YYYY-MM-DD   CST   m/s   m/s   deg     C     C     %      mb   sec
2017-11-22 06:00   5.8   7.3   328  -0.1  -7.3  58.5    0.00     0
2017-11-22 05:00   9.6  11.6   337  -0.1  -6.6  61.6    0.00     0
2017-11-22 04:00  10.4  11.7   339   0.6  -5.6  63.4    0.00     0
2017-11-22 03:00   8.8  10.6   308   0.5  -5.3  65.0    0.00     0
2017-11-22 02:00   9.7  11.2   315   0.5  -5.0  66.7    0.00     0
2017-11-22 01:00   8.6  10.4   306   0.4  -6.0  62.4    0.00     0
2017-11-22 00:00   8.8  10.2   307   0.3  -6.2  61.5    0.00     0
2017-11-21 23:00  10.3  11.7   306   0.6  -6.1  60.9    0.00     0
2017-11-21 22:00  10.8  13.0   308   0.7  -6.4  59.1    0.00     0
2017-11-21 21:00   7.6   8.8   317   0.7  -6.7  57.6    0.00     0
2017-11-21 20:00  10.6  12.9   317   1.1  -6.1  58.5    0.00     0
2017-11-21 19:00  11.0  13.6   315   1.9  -5.8  56.8    0.00     0
2017-11-21 18:00  11.9  13.1   321   1.8  -5.8  56.9    0.00     0
2017-11-21 17:00  12.3  13.8   314   1.6  -6.1  56.7    0.00     0
2017-11-21 16:00  12.0  14.3   307   2.8  -3.4  63.5    0.00     0
2017-11-21 15:00   9.5  10.5   295   5.3  -4.6  48.7    0.00     0
2017-11-21 14:00   5.2   6.2   200   4.2  -0.6  70.9    0.00     0
2017-11-21 13:00  11.4  12.6   247   5.7  -1.0  62.1    0.00     0
2017-11-21 12:00   7.3   8.6   245   5.2   0.8  73.1    0.00     0
2017-11-21 11:00  13.0  14.4   258   6.4  -0.2  62.4    0.00     0
2017-11-21 10:00  10.1  10.8   226   6.8  -0.2  60.8    0.00     0
2017-11-21 09:00   9.8  10.8   205   6.2  -0.4  62.5    0.00     0
2017-11-21 08:00  10.2  11.5   197   5.8  -1.1  61.2    0.00     0
2017-11-21 07:00   9.6  10.7   189   5.2  -1.4  62.5    0.00     0
2017-11-21 06:00  10.8  13.2   196   5.8  -1.5  59.5    0.00     0
2017-11-21 05:00  10.4  12.3   197   6.5  -1.3  57.3    0.00     0
2017-11-21 04:00  11.1  14.6   185   6.8  -1.7  54.4    0.00     0
2017-11-21 03:00  11.7  15.4   191   6.6  -1.9  54.4    0.00     0
2017-11-21 02:00  12.1  14.1   191   6.3  -2.3  53.9    0.00     0
2017-11-21 01:00  12.4  14.6   174   6.6  -2.6  51.8    0.00     0
2017-11-21 00:00  11.5  14.1   176   6.6  -2.9  50.8    0.00     0
2017-11-20 23:00  11.0  14.8   170   6.4  -2.8  51.9    0.00     0
2017-11-20 22:00  11.1  13.6   175   6.7  -2.5  51.9    0.00     0
2017-11-20 21:00  11.6  14.3   177   6.8  -2.1  52.9    0.00     0
2017-11-20 20:00  10.8  12.8   180   6.9  -1.8  53.9    0.00     0
2017-11-20 19:00  11.3  13.3   174   7.3  -1.4  53.7    0.00     0
2017-11-20 18:00  10.7  13.3   172   8.2  -1.0  52.3    0.00     0
2017-11-20 17:00  10.2  14.1   175   9.0  -0.2  52.4    0.00     0
2017-11-20 16:00  10.3  14.3   191  10.4  -0.7  46.0    0.00     0
2017-11-20 15:00  10.4  12.0   191  10.7  -1.3  43.2    0.00     0
2017-11-20 14:00  12.3  14.2   195  10.2  -1.8  43.0    0.00     0
2017-11-20 13:00   9.7  11.4   182   9.5  -2.1  43.9    0.00     0
2017-11-20 12:00   9.2  11.0   192   8.7  -2.5  45.3    0.00     0
2017-11-20 11:00   9.2  13.3   180   7.4  -3.2  46.8    0.00     0
2017-11-20 10:00   7.8   9.1   176   5.3  -3.5  52.8    0.00     0
2017-11-20 09:00   9.3  12.3   177   3.8  -4.3  55.3    0.00     0
2017-11-20 08:00   7.7   9.4   168   1.8  -4.5  63.2    0.00     0
2017-11-20 07:00   8.2  10.4   161   0.8  -5.1  64.9    0.00     0
2017-11-20 06:00   8.9  12.3   177   1.4  -5.1  62.1    0.00     0
2017-11-20 05:00   8.5  10.0   181   1.1  -5.8  60.1    0.00     0
2017-11-20 04:00   8.0   9.6   192   0.9  -5.7  61.3    0.00     0
2017-11-20 03:00   8.6  10.3   198   1.3  -5.7  59.6    0.00     0
2017-11-20 02:00   6.9   7.9   196   0.1  -5.6  65.7    0.00     0
2017-11-20 01:00   7.9   9.5   203  -0.5  -5.9  66.9    0.00     0
2017-11-20 00:00   5.2   6.0   195  -1.1  -5.4  72.5    0.00     0
2017-11-19 23:00   7.5   8.6   207  -0.1  -5.7  65.8    0.00     0
2017-11-19 22:00   9.4  11.3   219   1.0  -4.6  66.0    0.00     0
2017-11-19 21:00  12.2  13.3   235   0.9  -4.7  66.0    0.00     0
2017-11-19 20:00  12.3  13.5   243   1.2  -5.8  59.6    0.00     0
2017-11-19 19:00  11.2  12.9   259   1.9  -6.2  55.0    0.00     0
2017-11-19 18:00  11.1  12.0   257   1.8  -7.9  48.7    0.00     0
2017-11-19 17:00  11.2  12.2   253   1.5  -7.9  49.8    0.00     0
2017-11-19 16:00   8.4   9.3   252   1.3  -8.1  49.7    0.00     0
2017-11-19 15:00   8.1   9.2   273   1.3  -7.0  54.2    0.00     0
2017-11-19 14:00  10.8  12.1   259   0.5  -6.9  57.6    0.00     0
2017-11-19 13:00   9.9  11.6   258   0.3  -5.7  64.0    0.00     0
2017-11-19 11:00   9.2  11.0   268  -0.1  -5.8  65.6    0.00     0
2017-11-19 10:00   9.8  11.6   263  -0.1  -5.9  64.8    0.00     0
2017-11-19 09:00  10.4  12.2   271   0.4  -6.3  60.6    0.00     0
2017-11-19 08:00  10.1  12.1   292   0.5  -6.0  61.7    0.00     0
2017-11-19 07:00  11.8  15.1   267   0.9  -4.9  65.0    0.00     0
2017-11-19 06:00  10.8  12.8   269   1.4  -4.1  66.9    0.00     0
2017-11-19 05:00  11.2  12.1   287   1.9  -4.5  62.4    0.00     0
2017-11-19 04:00  10.2  11.5   285   2.6  -2.3  70.3    0.00     0
2017-11-19 03:00  11.8  13.9   291   3.2  -1.7  70.0    0.00     0
2017-11-19 02:00  11.7  13.6   310   3.3  -2.7  64.6    0.00     0
2017-11-19 01:00  11.7  13.2   301   3.8  -1.9  66.1    0.00     0
2017-11-19 00:00  12.9  14.7   311   4.5  -2.2  61.9    0.00     0
2017-11-18 23:00  14.9  16.3   329   4.6  -1.7  63.8    0.00     0
2017-11-18 22:00  12.9  16.1   306   4.8  -0.7  67.5    0.00     0
2017-11-18 21:00  15.1  16.7   304   4.9  -0.6  67.7    0.00     0
2017-11-18 20:00  16.2  18.5   322   5.4   0.2  69.2    0.00     0
2017-11-18 19:00  17.6  19.2   320   5.4   2.1  79.1    0.00     0
2017-11-18 18:00  18.5  20.7   331   5.5   2.9  83.5    0.00     0
2017-11-18 17:00  19.2  21.4   340   5.7   3.7  87.2    0.00     0
2017-11-18 16:00  19.0  20.6   338   6.0   3.8  85.6    0.00     0
2017-11-18 15:00  19.5  21.5   333   6.3   4.0  85.1    0.00     0
2017-11-18 14:00  18.9  21.4   337   6.0   4.0  86.7    0.00     0
2017-11-18 13:00  16.9  18.1   360   6.2   4.2  87.2    0.00     0
2017-11-18 12:00  16.6  18.5     5   6.9   5.2  88.7    0.00     0
2017-11-18 11:00  13.4  15.1     1   7.0   6.8  98.6    0.00     0
2017-11-18 10:00  13.6  14.8     2   7.3   7.8 103.8    0.00     0
2017-11-18 09:00  11.6  12.4    19   7.5   8.4 106.1    0.00     0
2017-11-18 08:00   3.0   3.2    40   7.2   8.1 106.3    0.00     0
2017-11-18 07:00   0.8   1.0    55   7.1   8.0 106.1    0.00     0
2017-11-18 06:00   0.9   1.2    36   7.3   8.2 106.1    0.00     0
2017-11-18 05:00   2.7   2.9   138   6.8   7.7 106.1    0.00     0
2017-11-18 04:00   2.0   2.2   118   6.7   7.5 106.0    0.00     0
2017-11-18 03:00   1.9   2.0   118   6.7   7.5 105.7    0.00     0
2017-11-18 02:00   1.4   1.4    56   6.8   7.5 104.9    0.00     0
2017-11-18 01:00   2.8   3.1   187   6.7   7.2 103.6    0.00     0
2017-11-18 00:00   4.3   5.2   188   6.6   6.8 101.5    0.00     0
2017-11-17 23:00   6.1   6.9   164   6.3   6.1  98.7    0.00     0
2017-11-17 22:00   5.6   6.6   168   5.8   4.3  90.3    0.00     0
2017-11-17 21:00   8.1   9.8   160   5.7   3.6  86.2    0.00     0
2017-11-17 20:00   8.0   9.7   148   5.6   3.3  85.1    0.00     0
2017-11-17 19:00   9.9  11.8   139   5.5   3.2  84.8    0.00     0
2017-11-17 18:00   9.1  10.9   136   7.5   0.3  60.0    0.00     0